Atglen, Pennsylvania
Current Conditions -  °F | °C
As of 1:35 PM on Saturday 20 Dec 2014 (Local Time) from KMQS Reporting Station
Overcast Overcast  
Wind Chill:   Ceiling: 2600
Heat Index:   Visibility: 10mi
Dew Point: -5°   Wind: 3mph
Humidity: 65%   Direction: 330°NNW
Pressure: 30.24"   Gusts: NA
Location:  39.95°N, 75.97°W
Report Text: KMQS 201835Z AUTO 33003KT 10SM OVC026 01/M05 A3024 RMK AO2
Loading
Personal Weather Stations






























Interactive Weather Map New forecast layout! Learn more

10-Day Weather Forecast

Advertisements
Track Severe Weather on mobile